Costa Luminosa — ICGU — position and weather

sailwx.info

Track history (hours):
 
Tides and Currents Weather Stations Pressure Air Temp Water Temp Dewpoint Dewpoint Depression Visibility Wind Speed Wind Dir Waves Ship Positions

Costa Luminosa

Last reported at 2019-May-18 21:48 UTC. Time now 2019-May-20 16:27 UTC.
Position N 44°23' E 013°08'.

Length 294 m; draft 8.1 m.

Type: Passenger vessel. MMSI: 247257900.

Date/timePositionNaut miles runAvg speedWind from/ knotsBaromVisibWave heightAir tempDewpointWater temp
2019-May-18 21:48N 44°23' E 013°08'518.2
2019-May-18 21:31N 44°29' E 013°05'918.1
2019-May-18 21:00N 44°37' E 013°00'917.9
2019-May-18 20:30N 44°45' E 012°56'917.6
2019-May-18 20:01N 44°53' E 012°51'917.5
2019-May-18 19:31N 45°01' E 012°46'817.0
2019-May-18 19:01N 45°08' E 012°38'816.6
2019-May-18 18:30N 45°14' E 012°30'816.4
2019-May-18 18:00N 45°22' E 012°30'5 9.6
2019-May-18 17:31N 45°26' E 012°25'3 5.3
2019-May-18 17:01N 45°26' E 012°21'2 4.4
2019-May-18 16:31N 45°26' E 012°18'0 0.8
2019-May-18 16:00N 45°26' E 012°19'0 0.0
2019-May-18 15:30N 45°26' E 012°19'0 0.0
2019-May-18 14:57N 45°26' E 012°19'0 0.0
2019-May-18 14:30N 45°26' E 012°19'0 0.0
2019-May-18 14:00N 45°26' E 012°19'0 0.0
2019-May-18 13:27N 45°26' E 012°19'0 0.0
2019-May-18 13:00N 45°26' E 012°19'0 0.0
2019-May-18 12:27N 45°26' E 012°19'0 0.0
2019-May-18 12:00N 45°26' E 012°19'0 0.0
2019-May-18 11:30N 45°26' E 012°19'0 0.0
2019-May-18 11:00N 45°26' E 012°19'0 0.0
2019-May-18 10:30N 45°26' E 012°19'0 0.0
2019-May-18 09:57N 45°26' E 012°19'0 0.0
2019-May-18 09:30N 45°26' E 012°19'0 0.0
2019-May-18 09:00N 45°26' E 012°19'0 0.0
2019-May-18 08:27N 45°26' E 012°19'0 0.0
2019-May-18 08:00N 45°26' E 012°19'0 0.0
2019-May-18 07:30N 45°26' E 012°19'0 0.2
2019-May-18 07:00N 45°26' E 012°19'1 2.7
2019-May-18 06:30N 45°26' E 012°20'2 4.8
2019-May-18 06:00N 45°26' E 012°24'4 8.2
2019-May-18 05:30N 45°24' E 012°29'611.6
2019-May-18 05:01N 45°19' E 012°32'815.9
2019-May-18 04:31N 45°12' E 012°39'816.4
2019-May-18 04:01N 45°08' E 012°48'816.3
2019-May-18 03:30N 45°00' E 012°53'816.9
2019-May-18 03:01N 44°52' E 012°58'918.8
2019-May-18 02:30N 44°44' E 013°02'918.7
2019-May-18 02:01N 44°35' E 013°06'918.8
2019-May-18 01:30N 44°26' E 013°10'918.5
2019-May-18 01:01N 44°18' E 013°16'1018.7
2019-May-18 00:30N 44°12' E 013°27'2418.6
2019-May-17 23:12N 43°57' E 013°53'818.6
2019-May-17 22:47N 43°52' E 014°02'1118.6
2019-May-17 22:11N 43°47' E 014°15'57711.2
2019-May-15 18:41N 37°18' E 023°38'316.3
2019-May-15 18:29N 37°22' E 023°39'1016.3
2019-May-15 17:52N 37°31' E 023°41'616.0
2019-May-15 17:30N 37°37' E 023°43'815.9
2019-May-15 17:00N 37°44' E 023°39'815.7
2019-May-15 16:30N 37°52' E 023°36'5 9.7
2019-May-15 16:00N 37°56' E 023°38'0 0.2
2019-May-15 15:29N 37°56' E 023°38'0 0.0
2019-May-15 14:59N 37°56' E 023°38'0 0.0
2019-May-15 14:29N 37°56' E 023°38'0 0.0
2019-May-15 13:53N 37°56' E 023°38'0 0.0
2019-May-15 13:29N 37°56' E 023°38'0 0.0
2019-May-15 12:59N 37°56' E 023°38'0 0.0
2019-May-15 12:29N 37°56' E 023°38'0 0.0
2019-May-15 11:59N 37°56' E 023°38'0 0.0
2019-May-15 11:29N 37°56' E 023°38'0 0.0
2019-May-15 10:56N 37°56' E 023°38'0 0.0
2019-May-15 10:29N 37°56' E 023°38'0 0.0
2019-May-15 09:59N 37°56' E 023°38'0 0.0
2019-May-15 09:29N 37°56' E 023°38'0 0.0
2019-May-15 08:59N 37°56' E 023°38'0 0.0
2019-May-15 08:26N 37°56' E 023°38'0 0.0
2019-May-15 07:59N 37°56' E 023°38'0 0.0
2019-May-15 07:29N 37°56' E 023°38'0 0.0
2019-May-15 06:59N 37°56' E 023°38'0 0.0
2019-May-15 06:29N 37°56' E 023°38'0 0.0
2019-May-15 05:59N 37°56' E 023°38'0 0.2
2019-May-15 05:30N 37°56' E 023°38'2 4.8
2019-May-15 05:00N 37°54' E 023°37'510.7
2019-May-15 04:30N 37°49' E 023°40'815.7
2019-May-15 04:00N 37°42' E 023°44'815.0
2019-May-15 03:30N 37°34' E 023°44'815.8
2019-May-15 03:00N 37°27' E 023°41'816.1
2019-May-15 02:30N 37°19' E 023°39'  
2019-May-11 23:14N 44°05' E 014°04'419.7
2019-May-11 23:00N 44°08' E 014°00'1019.4
2019-May-11 22:30N 44°16' E 013°52'1019.1
2019-May-11 22:00N 44°24' E 013°45'1019.0
2019-May-11 21:30N 44°32' E 013°38'918.9
2019-May-11 21:00N 44°40' E 013°30'918.8
2019-May-11 20:30N 44°48' E 013°23'918.0
2019-May-11 20:00N 44°54' E 013°14'1019.2
2019-May-11 19:30N 44°54' E 013°00'917.1
2019-May-11 19:00N 44°58' E 012°49'918.8
2019-May-11 18:30N 45°06' E 012°43'917.6
2019-May-11 18:00N 45°11' E 012°32'815.4
2019-May-11 17:30N 45°18' E 012°30'713.8
2019-May-11 17:00N 45°25' E 012°27'3 6.5
2019-May-11 16:30N 45°26' E 012°23'2 4.9
2019-May-11 16:00N 45°26' E 012°19'1 0.9
2019-May-11 15:28N 45°26' E 012°19'0 0.0
2019-May-11 14:58N 45°26' E 012°19'0 0.0
2019-May-11 14:28N 45°26' E 012°19'0 0.0
2019-May-11 13:58N 45°26' E 012°19'0 0.0
2019-May-11 13:28N 45°26' E 012°19'0 0.0
2019-May-11 12:58N 45°26' E 012°19'0 0.0
2019-May-11 12:28N 45°26' E 012°19'0 0.0
2019-May-11 11:58N 45°26' E 012°19'0 0.0
2019-May-11 11:28N 45°26' E 012°19'0 0.0
2019-May-11 10:55N 45°26' E 012°19'0 0.0
2019-May-11 10:28N 45°26' E 012°19'0 0.0
2019-May-11 09:58N 45°26' E 012°19'0 0.0
2019-May-11 09:28N 45°26' E 012°19'0 0.0
2019-May-11 08:58N 45°26' E 012°19'0 0.0
2019-May-11 08:28N 45°26' E 012°19'0 0.0
2019-May-11 07:59N 45°26' E 012°19'0 0.5
2019-May-11 07:30N 45°26' E 012°18'2 4.1
2019-May-11 07:00N 45°26' E 012°21'3 5.1
2019-May-11 06:30N 45°26' E 012°25'3 6.8
2019-May-11 06:00N 45°24' E 012°29'4 7.9
2019-May-11 05:30N 45°21' E 012°32'815.2
2019-May-11 05:00N 45°14' E 012°37'816.7
2019-May-11 04:30N 45°09' E 012°47'816.3
2019-May-11 04:00N 45°02' E 012°52'816.7
2019-May-11 03:30N 44°54' E 012°57'919.0
2019-May-11 03:00N 44°45' E 013°01'918.8
2019-May-11 02:30N 44°36' E 013°05'918.7
2019-May-11 02:00N 44°28' E 013°10'918.8
2019-May-11 01:30N 44°19' E 013°14'918.6
2019-May-11 01:00N 44°13' E 013°24'918.7
2019-May-11 00:30N 44°07' E 013°35'918.7
2019-May-11 00:00N 44°01' E 013°45'918.7
2019-May-10 23:30N 43°56' E 013°56'918.8
2019-May-10 23:00N 43°51' E 014°07'918.8
2019-May-10 22:30N 43°46' E 014°17'918.8
2019-May-10 22:00N 43°39' E 014°26'  
Track history (hours):
 
Tides and Currents Weather Stations Pressure Air Temp Water Temp Dewpoint Dewpoint Depression Visibility Wind Speed Wind Dir Waves Ship Positions

Costa Luminosa

Last reported at 2019-May-18 21:48 UTC. Time now 2019-May-20 16:27 UTC.
Position N 44°23' E 013°08'.

Length 294 m; draft 8.1 m.

Type: Passenger vessel. MMSI: 247257900.

Date/timePositionNaut miles runAvg speedWind from/ knotsBaromVisibWave heightAir tempDewpointWater temp
2019-May-18 21:48N 44°23' E 013°08'518.2
2019-May-18 21:31N 44°29' E 013°05'918.1
2019-May-18 21:00N 44°37' E 013°00'917.9
2019-May-18 20:30N 44°45' E 012°56'917.6
2019-May-18 20:01N 44°53' E 012°51'917.5
2019-May-18 19:31N 45°01' E 012°46'817.0
2019-May-18 19:01N 45°08' E 012°38'816.6
2019-May-18 18:30N 45°14' E 012°30'816.4
2019-May-18 18:00N 45°22' E 012°30'5 9.6
2019-May-18 17:31N 45°26' E 012°25'3 5.3
2019-May-18 17:01N 45°26' E 012°21'2 4.4
2019-May-18 16:31N 45°26' E 012°18'0 0.8
2019-May-18 16:00N 45°26' E 012°19'0 0.0
2019-May-18 15:30N 45°26' E 012°19'0 0.0
2019-May-18 14:57N 45°26' E 012°19'0 0.0
2019-May-18 14:30N 45°26' E 012°19'0 0.0
2019-May-18 14:00N 45°26' E 012°19'0 0.0
2019-May-18 13:27N 45°26' E 012°19'0 0.0
2019-May-18 13:00N 45°26' E 012°19'0 0.0
2019-May-18 12:27N 45°26' E 012°19'0 0.0
2019-May-18 12:00N 45°26' E 012°19'0 0.0
2019-May-18 11:30N 45°26' E 012°19'0 0.0
2019-May-18 11:00N 45°26' E 012°19'0 0.0
2019-May-18 10:30N 45°26' E 012°19'0 0.0
2019-May-18 09:57N 45°26' E 012°19'0 0.0
2019-May-18 09:30N 45°26' E 012°19'0 0.0
2019-May-18 09:00N 45°26' E 012°19'0 0.0
2019-May-18 08:27N 45°26' E 012°19'0 0.0
2019-May-18 08:00N 45°26' E 012°19'0 0.0
2019-May-18 07:30N 45°26' E 012°19'0 0.2
2019-May-18 07:00N 45°26' E 012°19'1 2.7
2019-May-18 06:30N 45°26' E 012°20'2 4.8
2019-May-18 06:00N 45°26' E 012°24'4 8.2
2019-May-18 05:30N 45°24' E 012°29'611.6
2019-May-18 05:01N 45°19' E 012°32'815.9
2019-May-18 04:31N 45°12' E 012°39'816.4
2019-May-18 04:01N 45°08' E 012°48'816.3
2019-May-18 03:30N 45°00' E 012°53'816.9
2019-May-18 03:01N 44°52' E 012°58'918.8
2019-May-18 02:30N 44°44' E 013°02'918.7
2019-May-18 02:01N 44°35' E 013°06'918.8
2019-May-18 01:30N 44°26' E 013°10'918.5
2019-May-18 01:01N 44°18' E 013°16'1018.7
2019-May-18 00:30N 44°12' E 013°27'2418.6
2019-May-17 23:12N 43°57' E 013°53'818.6
2019-May-17 22:47N 43°52' E 014°02'1118.6
2019-May-17 22:11N 43°47' E 014°15'57711.2
2019-May-15 18:41N 37°18' E 023°38'316.3
2019-May-15 18:29N 37°22' E 023°39'1016.3
2019-May-15 17:52N 37°31' E 023°41'616.0
2019-May-15 17:30N 37°37' E 023°43'815.9
2019-May-15 17:00N 37°44' E 023°39'815.7
2019-May-15 16:30N 37°52' E 023°36'5 9.7
2019-May-15 16:00N 37°56' E 023°38'0 0.2
2019-May-15 15:29N 37°56' E 023°38'0 0.0
2019-May-15 14:59N 37°56' E 023°38'0 0.0
2019-May-15 14:29N 37°56' E 023°38'0 0.0
2019-May-15 13:53N 37°56' E 023°38'0 0.0
2019-May-15 13:29N 37°56' E 023°38'0 0.0
2019-May-15 12:59N 37°56' E 023°38'0 0.0
2019-May-15 12:29N 37°56' E 023°38'0 0.0
2019-May-15 11:59N 37°56' E 023°38'0 0.0
2019-May-15 11:29N 37°56' E 023°38'0 0.0
2019-May-15 10:56N 37°56' E 023°38'0 0.0
2019-May-15 10:29N 37°56' E 023°38'0 0.0
2019-May-15 09:59N 37°56' E 023°38'0 0.0
2019-May-15 09:29N 37°56' E 023°38'0 0.0
2019-May-15 08:59N 37°56' E 023°38'0 0.0
2019-May-15 08:26N 37°56' E 023°38'0 0.0
2019-May-15 07:59N 37°56' E 023°38'0 0.0
2019-May-15 07:29N 37°56' E 023°38'0 0.0
2019-May-15 06:59N 37°56' E 023°38'0 0.0
2019-May-15 06:29N 37°56' E 023°38'0 0.0
2019-May-15 05:59N 37°56' E 023°38'0 0.2
2019-May-15 05:30N 37°56' E 023°38'2 4.8
2019-May-15 05:00N 37°54' E 023°37'510.7
2019-May-15 04:30N 37°49' E 023°40'815.7
2019-May-15 04:00N 37°42' E 023°44'815.0
2019-May-15 03:30N 37°34' E 023°44'815.8
2019-May-15 03:00N 37°27' E 023°41'816.1
2019-May-15 02:30N 37°19' E 023°39'  
2019-May-11 23:14N 44°05' E 014°04'419.7
2019-May-11 23:00N 44°08' E 014°00'1019.4
2019-May-11 22:30N 44°16' E 013°52'1019.1
2019-May-11 22:00N 44°24' E 013°45'1019.0
2019-May-11 21:30N 44°32' E 013°38'918.9
2019-May-11 21:00N 44°40' E 013°30'918.8
2019-May-11 20:30N 44°48' E 013°23'918.0
2019-May-11 20:00N 44°54' E 013°14'1019.2
2019-May-11 19:30N 44°54' E 013°00'917.1
2019-May-11 19:00N 44°58' E 012°49'918.8
2019-May-11 18:30N 45°06' E 012°43'917.6
2019-May-11 18:00N 45°11' E 012°32'815.4
2019-May-11 17:30N 45°18' E 012°30'713.8
2019-May-11 17:00N 45°25' E 012°27'3 6.5
2019-May-11 16:30N 45°26' E 012°23'2 4.9
2019-May-11 16:00N 45°26' E 012°19'1 0.9
2019-May-11 15:28N 45°26' E 012°19'0 0.0
2019-May-11 14:58N 45°26' E 012°19'0 0.0
2019-May-11 14:28N 45°26' E 012°19'0 0.0
2019-May-11 13:58N 45°26' E 012°19'0 0.0
2019-May-11 13:28N 45°26' E 012°19'0 0.0
2019-May-11 12:58N 45°26' E 012°19'0 0.0
2019-May-11 12:28N 45°26' E 012°19'0 0.0
2019-May-11 11:58N 45°26' E 012°19'0 0.0
2019-May-11 11:28N 45°26' E 012°19'0 0.0
2019-May-11 10:55N 45°26' E 012°19'0 0.0
2019-May-11 10:28N 45°26' E 012°19'0 0.0
2019-May-11 09:58N 45°26' E 012°19'0 0.0
2019-May-11 09:28N 45°26' E 012°19'0 0.0
2019-May-11 08:58N 45°26' E 012°19'0 0.0
2019-May-11 08:28N 45°26' E 012°19'0 0.0
2019-May-11 07:59N 45°26' E 012°19'0 0.5
2019-May-11 07:30N 45°26' E 012°18'2 4.1
2019-May-11 07:00N 45°26' E 012°21'3 5.1
2019-May-11 06:30N 45°26' E 012°25'3 6.8
2019-May-11 06:00N 45°24' E 012°29'4 7.9
2019-May-11 05:30N 45°21' E 012°32'815.2
2019-May-11 05:00N 45°14' E 012°37'816.7
2019-May-11 04:30N 45°09' E 012°47'816.3
2019-May-11 04:00N 45°02' E 012°52'816.7
2019-May-11 03:30N 44°54' E 012°57'919.0
2019-May-11 03:00N 44°45' E 013°01'918.8
2019-May-11 02:30N 44°36' E 013°05'918.7
2019-May-11 02:00N 44°28' E 013°10'918.8
2019-May-11 01:30N 44°19' E 013°14'918.6
2019-May-11 01:00N 44°13' E 013°24'918.7
2019-May-11 00:30N 44°07' E 013°35'918.7
2019-May-11 00:00N 44°01' E 013°45'918.7
2019-May-10 23:30N 43°56' E 013°56'918.8
2019-May-10 23:00N 43°51' E 014°07'918.8
2019-May-10 22:30N 43°46' E 014°17'918.8
2019-May-10 22:00N 43°39' E 014°26'  

Dump ship's entire track history